Matador, Texas
Current Conditions -  °F | °C
As of 8:53 AM on Friday 31 Oct 2014 (Local Time) from KCDS Reporting Station
Clear Clear  
Wind Chill: 44°   Ceiling: Unl
Heat Index: 48°   Visibility: 10mi
Dew Point: 34°   Wind: 8mph
Humidity: 58%   Direction: 340°NNW
Pressure: 30.44"   Gusts: NA
Location:  34.01°N, 100.82°W
Report Text: KCDS 311353Z AUTO 34007KT 10SM CLR 09/01 A3044 RMK AO2 SLP298 T00890011
Loading
Personal Weather Stations






























Interactive Weather Map
Tropical Storm Tracking
New forecast layout! Learn more

10-Day Weather Forecast

Advertisements
Track Severe Weather on mobile